sensor_id;sensor_type;location;lat;lon;timestamp;pressure;altitude;pressure_sealevel;temperature;humidity
61786;BME280;47692;53.714;11.372;2022-08-02T00:02:11;101281.81;;;11.20;100.00
61786;BME280;47692;53.714;11.372;2022-08-02T00:04:36;101284.41;;;11.22;100.00
61786;BME280;47692;53.714;11.372;2022-08-02T00:07:02;101288.75;;;11.23;100.00
61786;BME280;47692;53.714;11.372;2022-08-02T00:09:27;101285.22;;;11.25;100.00
61786;BME280;47692;53.714;11.372;2022-08-02T00:11:53;101288.63;;;11.27;100.00
61786;BME280;47692;53.714;11.372;2022-08-02T00:14:19;101286.03;;;11.27;100.00
61786;BME280;47692;53.714;11.372;2022-08-02T00:16:44;101290.47;;;11.22;100.00
61786;BME280;47692;53.714;11.372;2022-08-02T00:19:09;101299.25;;;11.18;100.00
61786;BME280;47692;53.714;11.372;2022-08-02T00:21:35;101295.88;;;11.10;100.00
61786;BME280;47692;53.714;11.372;2022-08-02T00:24:00;101296.00;;;11.04;100.00
61786;BME280;47692;53.714;11.372;2022-08-02T00:26:25;101296.03;;;11.02;100.00
61786;BME280;47692;53.714;11.372;2022-08-02T00:28:51;101302.16;;;10.99;100.00
61786;BME280;47692;53.714;11.372;2022-08-02T00:31:16;101301.31;;;10.97;100.00
61786;BME280;47692;53.714;11.372;2022-08-02T00:33:41;101296.13;;;10.94;100.00
61786;BME280;47692;53.714;11.372;2022-08-02T00:36:07;101300.53;;;10.91;100.00
61786;BME280;47692;53.714;11.372;2022-08-02T00:38:32;101303.09;;;10.95;100.00
61786;BME280;47692;53.714;11.372;2022-08-02T00:40:57;101315.31;;;10.93;100.00
61786;BME280;47692;53.714;11.372;2022-08-02T00:43:23;101311.84;;;10.91;100.00
61786;BME280;47692;53.714;11.372;2022-08-02T00:45:48;101316.19;;;10.92;100.00
61786;BME280;47692;53.714;11.372;2022-08-02T00:48:14;101315.41;;;10.87;100.00
61786;BME280;47692;53.714;11.372;2022-08-02T00:50:40;101325.88;;;10.84;100.00
61786;BME280;47692;53.714;11.372;2022-08-02T00:53:06;101326.75;;;10.85;100.00
61786;BME280;47692;53.714;11.372;2022-08-02T00:55:33;101334.63;;;10.83;100.00
61786;BME280;47692;53.714;11.372;2022-08-02T00:57:59;101323.28;;;10.82;100.00
61786;BME280;47692;53.714;11.372;2022-08-02T01:00:24;101325.94;;;10.81;100.00
61786;BME280;47692;53.714;11.372;2022-08-02T01:02:50;101325.94;;;10.81;100.00
61786;BME280;47692;53.714;11.372;2022-08-02T01:05:16;101322.47;;;10.80;100.00
61786;BME280;47692;53.714;11.372;2022-08-02T01:07:42;101320.78;;;10.78;100.00
61786;BME280;47692;53.714;11.372;2022-08-02T01:10:08;101326.00;;;10.78;100.00
61786;BME280;47692;53.714;11.372;2022-08-02T01:12:33;101327.75;;;10.76;100.00
61786;BME280;47692;53.714;11.372;2022-08-02T01:15:04;101330.47;;;10.68;100.00
61786;BME280;47692;53.714;11.372;2022-08-02T01:29:19;101328.28;;;10.32;100.00
61786;BME280;47692;53.714;11.372;2022-08-02T01:31:56;101330.84;;;10.34;100.00
61786;BME280;47692;53.714;11.372;2022-08-02T01:34:31;101330.88;;;10.37;100.00
61786;BME280;47692;53.714;11.372;2022-08-02T01:37:06;101336.06;;;10.39;100.00
61786;BME280;47692;53.714;11.372;2022-08-02T01:39:37;101326.50;;;10.38;100.00
61786;BME280;47692;53.714;11.372;2022-08-02T01:42:04;101331.69;;;10.41;100.00
61786;BME280;47692;53.714;11.372;2022-08-02T01:44:34;101329.06;;;10.39;100.00
61786;BME280;47692;53.714;11.372;2022-08-02T01:47:04;101323.84;;;10.39;100.00
61786;BME280;47692;53.714;11.372;2022-08-02T01:49:31;101322.16;;;10.37;100.00
61786;BME280;47692;53.714;11.372;2022-08-02T01:52:00;101323.91;;;10.36;100.00
61786;BME280;47692;53.714;11.372;2022-08-02T01:54:48;101324.75;;;10.37;100.00
61786;BME280;47692;53.714;11.372;2022-08-02T01:57:15;101324.75;;;10.37;100.00
61786;BME280;47692;53.714;11.372;2022-08-02T01:59:42;101319.53;;;10.37;100.00
61786;BME280;47692;53.714;11.372;2022-08-02T02:02:10;101328.16;;;10.42;100.00
61786;BME280;47692;53.714;11.372;2022-08-02T02:04:36;101326.44;;;10.42;100.00
61786;BME280;47692;53.714;11.372;2022-08-02T02:07:04;101325.56;;;10.42;100.00
61786;BME280;47692;53.714;11.372;2022-08-02T02:09:35;101327.28;;;10.43;100.00
61786;BME280;47692;53.714;11.372;2022-08-02T02:12:02;101326.41;;;10.44;100.00
61786;BME280;47692;53.714;11.372;2022-08-02T02:14:28;101319.44;;;10.46;100.00
61786;BME280;47692;53.714;11.372;2022-08-02T02:16:55;101324.66;;;10.46;100.00
61786;BME280;47692;53.714;11.372;2022-08-02T02:19:23;101323.00;;;10.39;100.00
61786;BME280;47692;53.714;11.372;2022-08-02T02:21:50;101318.69;;;10.33;100.00
61786;BME280;47692;53.714;11.372;2022-08-02T02:24:16;101321.38;;;10.28;100.00
61786;BME280;47692;53.714;11.372;2022-08-02T02:26:42;101320.47;;;10.28;100.00
61786;BME280;47692;53.714;11.372;2022-08-02T02:29:10;101316.22;;;10.22;100.00
61786;BME280;47692;53.714;11.372;2022-08-02T02:31:38;101322.28;;;10.26;100.00
61786;BME280;47692;53.714;11.372;2022-08-02T02:34:08;101322.28;;;10.26;100.00
61786;BME280;47692;53.714;11.372;2022-08-02T02:36:37;101320.56;;;10.23;100.00
61786;BME280;47692;53.714;11.372;2022-08-02T02:39:04;101317.13;;;10.16;100.00
61786;BME280;47692;53.714;11.372;2022-08-02T02:41:31;101325.06;;;10.09;100.00
61786;BME280;47692;53.714;11.372;2022-08-02T02:43:59;101322.53;;;10.01;100.00
61786;BME280;47692;53.714;11.372;2022-08-02T02:46:26;101322.63;;;9.92;100.00
61786;BME280;47692;53.714;11.372;2022-08-02T02:48:53;101327.06;;;9.85;100.00
61786;BME280;47692;53.714;11.372;2022-08-02T02:51:20;101332.28;;;9.82;100.00
61786;BME280;47692;53.714;11.372;2022-08-02T02:53:46;101332.34;;;9.76;100.00
61786;BME280;47692;53.714;11.372;2022-08-02T02:56:15;101324.59;;;9.71;100.00
61786;BME280;47692;53.714;11.372;2022-08-02T02:58:42;101322.00;;;9.66;100.00
61786;BME280;47692;53.714;11.372;2022-08-02T03:01:08;101322.88;;;9.65;100.00
61786;BME280;47692;53.714;11.372;2022-08-02T03:03:52;101329.00;;;9.61;100.00
61786;BME280;47692;53.714;11.372;2022-08-02T03:06:18;101324.69;;;9.59;100.00
61786;BME280;47692;53.714;11.372;2022-08-02T03:08:44;101328.19;;;9.56;100.00
61786;BME280;47692;53.714;11.372;2022-08-02T03:11:11;101322.06;;;9.57;100.00
61786;BME280;47692;53.714;11.372;2022-08-02T03:13:37;101315.97;;;9.61;100.00
61786;BME280;47692;53.714;11.372;2022-08-02T03:16:04;101323.75;;;9.64;100.00
61786;BME280;47692;53.714;11.372;2022-08-02T03:21:04;101317.66;;;9.68;100.00
61786;BME280;47692;53.714;11.372;2022-08-02T03:23:30;101317.66;;;9.68;100.00
61786;BME280;47692;53.714;11.372;2022-08-02T03:25:56;101321.13;;;9.69;100.00
61786;BME280;47692;53.714;11.372;2022-08-02T03:28:22;101320.25;;;9.68;100.00
61786;BME280;47692;53.714;11.372;2022-08-02T03:30:47;101328.97;;;9.67;100.00
61786;BME280;47692;53.714;11.372;2022-08-02T03:33:13;101320.28;;;9.65;100.00
61786;BME280;47692;53.714;11.372;2022-08-02T03:35:40;101317.66;;;9.65;100.00
61786;BME280;47692;53.714;11.372;2022-08-02T03:38:07;101314.22;;;9.62;100.00
61786;BME280;47692;53.714;11.372;2022-08-02T03:40:34;101316.81;;;9.63;100.00
61786;BME280;47692;53.714;11.372;2022-08-02T03:43:00;101308.09;;;9.66;100.00
61786;BME280;47692;53.714;11.372;2022-08-02T03:45:27;101300.28;;;9.66;100.00
61786;BME280;47692;53.714;11.372;2022-08-02T03:47:53;101294.16;;;9.72;100.00
61786;BME280;47692;53.714;11.372;2022-08-02T03:50:19;101296.69;;;9.78;100.00
61786;BME280;47692;53.714;11.372;2022-08-02T03:52:47;101295.75;;;9.85;100.00
61786;BME280;47692;53.714;11.372;2022-08-02T03:55:13;101295.78;;;9.83;100.00
61786;BME280;47692;53.714;11.372;2022-08-02T03:57:39;101290.56;;;9.82;100.00
61786;BME280;47692;53.714;11.372;2022-08-02T04:00:06;101289.72;;;9.80;100.00
61786;BME280;47692;53.714;11.372;2022-08-02T04:02:32;101288.81;;;9.81;100.00
61786;BME280;47692;53.714;11.372;2022-08-02T04:04:57;101304.47;;;9.81;100.00
61786;BME280;47692;53.714;11.372;2022-08-02T04:07:23;101302.69;;;9.84;100.00
61786;BME280;47692;53.714;11.372;2022-08-02T04:09:48;101300.91;;;9.91;100.00
61786;BME280;47692;53.714;11.372;2022-08-02T04:12:13;101309.56;;;9.93;100.00
61786;BME280;47692;53.714;11.372;2022-08-02T04:14:39;101306.06;;;9.97;100.00
61786;BME280;47692;53.714;11.372;2022-08-02T04:17:08;101309.44;;;10.06;100.00
61786;BME280;47692;53.714;11.372;2022-08-02T04:19:45;101308.53;;;10.08;100.00
61786;BME280;47692;53.714;11.372;2022-08-02T04:22:29;101314.56;;;10.12;100.00
61786;BME280;47692;53.714;11.372;2022-08-02T04:25:01;101323.25;;;10.17;100.00
61786;BME280;47692;53.714;11.372;2022-08-02T04:27:27;101322.28;;;10.26;100.00
61786;BME280;47692;53.714;11.372;2022-08-02T04:29:55;101315.19;;;10.34;100.00
61786;BME280;47692;53.714;11.372;2022-08-02T04:32:22;101321.28;;;10.38;100.00
61786;BME280;47692;53.714;11.372;2022-08-02T04:34:47;101327.31;;;10.44;100.00
61786;BME280;47692;53.714;11.372;2022-08-02T04:37:13;101331.59;;;10.48;100.00
61786;BME280;47692;53.714;11.372;2022-08-02T04:39:42;101336.78;;;10.50;100.00
61786;BME280;47692;53.714;11.372;2022-08-02T04:42:08;101332.44;;;10.49;100.00
61786;BME280;47692;53.714;11.372;2022-08-02T04:44:33;101330.69;;;10.51;100.00
61786;BME280;47692;53.714;11.372;2022-08-02T04:47:00;101329.75;;;10.55;100.00
61786;BME280;47692;53.714;11.372;2022-08-02T04:49:29;101336.69;;;10.59;100.00
61786;BME280;47692;53.714;11.372;2022-08-02T04:51:55;101333.91;;;10.70;100.00
61786;BME280;47692;53.714;11.372;2022-08-02T04:54:20;101336.44;;;10.78;100.00
61786;BME280;47692;53.714;11.372;2022-08-02T04:56:46;101343.28;;;10.85;100.00
61786;BME280;47692;53.714;11.372;2022-08-02T04:59:11;101339.75;;;10.89;100.00
61786;BME280;47692;53.714;11.372;2022-08-02T05:01:37;101339.63;;;10.98;100.00
61786;BME280;47692;53.714;11.372;2022-08-02T05:04:04;101342.94;;;11.10;100.00
61786;BME280;47692;53.714;11.372;2022-08-02T05:06:30;101336.69;;;11.20;100.00
61786;BME280;47692;53.714;11.372;2022-08-02T05:08:55;101343.50;;;11.30;100.00
61786;BME280;47692;53.714;11.372;2022-08-02T05:11:22;101346.03;;;11.34;100.00
61786;BME280;47692;53.714;11.372;2022-08-02T05:13:48;101342.53;;;11.38;100.00
61786;BME280;47692;53.714;11.372;2022-08-02T05:16:14;101342.41;;;11.42;100.00
61786;BME280;47692;53.714;11.372;2022-08-02T05:18:39;101337.22;;;11.41;100.00
61786;BME280;47692;53.714;11.372;2022-08-02T05:21:04;101326.84;;;11.38;100.00
61786;BME280;47692;53.714;11.372;2022-08-02T05:23:30;101330.22;;;11.43;100.00
61786;BME280;47692;53.714;11.372;2022-08-02T05:25:55;101335.38;;;11.46;100.00
61786;BME280;47692;53.714;11.372;2022-08-02T05:28:20;101332.56;;;11.58;100.00
61786;BME280;47692;53.714;11.372;2022-08-02T05:30:46;101345.28;;;11.80;100.00
61786;BME280;47692;53.714;11.372;2022-08-02T05:33:11;101343.16;;;12.04;100.00
61786;BME280;47692;53.714;11.372;2022-08-02T05:35:36;101341.75;;;12.31;100.00
61786;BME280;47692;53.714;11.372;2022-08-02T05:38:02;101347.63;;;12.42;100.00
61786;BME280;47692;53.714;11.372;2022-08-02T05:40:27;101339.44;;;12.58;100.00
61786;BME280;47692;53.714;11.372;2022-08-02T05:42:53;101338.09;;;12.79;100.00
61786;BME280;47692;53.714;11.372;2022-08-02T05:45:19;101345.41;;;13.04;100.00
61786;BME280;47692;53.714;11.372;2022-08-02T05:47:44;101341.41;;;13.27;100.00
61786;BME280;47692;53.714;11.372;2022-08-02T05:50:10;101336.72;;;13.41;100.00
61786;BME280;47692;53.714;11.372;2022-08-02T05:55:10;101344.06;;;13.63;98.13
61786;BME280;47692;53.714;11.372;2022-08-02T06:00:32;101339.81;;;13.92;98.09
61786;BME280;47692;53.714;11.372;2022-08-02T06:03:04;101335.38;;;13.94;96.80
61786;BME280;47692;53.714;11.372;2022-08-02T06:05:46;101344.31;;;13.86;97.52
61786;BME280;47692;53.714;11.372;2022-08-02T06:08:13;101348.69;;;13.86;98.35
61786;BME280;47692;53.714;11.372;2022-08-02T06:10:39;101349.78;;;13.77;98.74
61786;BME280;47692;53.714;11.372;2022-08-02T06:13:13;101340.13;;;13.79;99.18
61786;BME280;47692;53.714;11.372;2022-08-02T06:15:40;101350.19;;;13.96;99.10
61786;BME280;47692;53.714;11.372;2022-08-02T06:18:07;101350.53;;;14.15;98.60
61786;BME280;47692;53.714;11.372;2022-08-02T06:20:34;101350.69;;;14.42;98.33
61786;BME280;47692;53.714;11.372;2022-08-02T06:23:01;101357.06;;;14.65;96.65
61786;BME280;47692;53.714;11.372;2022-08-02T06:25:28;101359.38;;;14.76;94.35
61786;BME280;47692;53.714;11.372;2022-08-02T06:27:53;101369.53;;;14.86;93.53
61786;BME280;47692;53.714;11.372;2022-08-02T06:30:19;101367.25;;;15.04;93.50
61786;BME280;47692;53.714;11.372;2022-08-02T06:32:49;101369.91;;;15.31;94.16
61786;BME280;47692;53.714;11.372;2022-08-02T06:35:15;101374.09;;;15.38;90.67
61786;BME280;47692;53.714;11.372;2022-08-02T06:37:51;101374.59;;;15.49;90.67
61786;BME280;47692;53.714;11.372;2022-08-02T06:42:57;101377.53;;;15.94;88.81
61786;BME280;47692;53.714;11.372;2022-08-02T06:45:27;101368.66;;;15.96;84.42
61786;BME280;47692;53.714;11.372;2022-08-02T06:47:53;101368.31;;;16.06;83.68
61786;BME280;47692;53.714;11.372;2022-08-02T06:50:18;101368.44;;;16.03;81.69
61786;BME280;47692;53.714;11.372;2022-08-02T06:52:43;101359.72;;;16.01;82.82
61786;BME280;47692;53.714;11.372;2022-08-02T06:55:09;101361.41;;;16.27;84.04
61786;BME280;47692;53.714;11.372;2022-08-02T06:57:34;101359.44;;;16.57;81.69
61786;BME280;47692;53.714;11.372;2022-08-02T07:00:00;101368.94;;;16.61;76.63
61786;BME280;47692;53.714;11.372;2022-08-02T07:02:28;101348.66;;;16.63;74.57
61786;BME280;47692;53.714;11.372;2022-08-02T07:04:54;101346.06;;;16.62;75.53
61786;BME280;47692;53.714;11.372;2022-08-02T07:07:19;101356.38;;;16.68;73.95
61786;BME280;47692;53.714;11.372;2022-08-02T07:09:44;101352.47;;;16.78;75.00
61786;BME280;47692;53.714;11.372;2022-08-02T07:12:10;101351.09;;;16.92;74.09
61786;BME280;47692;53.714;11.372;2022-08-02T07:14:35;101347.53;;;16.93;73.45
61786;BME280;47692;53.714;11.372;2022-08-02T07:17:00;101348.47;;;16.92;73.62
61786;BME280;47692;53.714;11.372;2022-08-02T07:19:26;101340.59;;;16.90;72.74
61786;BME280;47692;53.714;11.372;2022-08-02T07:21:52;101339.38;;;16.99;72.27
61786;BME280;47692;53.714;11.372;2022-08-02T07:24:17;101338.06;;;16.65;71.41
61786;BME280;47692;53.714;11.372;2022-08-02T07:26:42;101344.81;;;16.72;72.16
61786;BME280;47692;53.714;11.372;2022-08-02T07:29:08;101347.38;;;16.98;72.02
61786;BME280;47692;53.714;11.372;2022-08-02T07:31:33;101344.19;;;17.11;71.28
61786;BME280;47692;53.714;11.372;2022-08-02T07:33:58;101348.22;;;17.20;70.78
61786;BME280;47692;53.714;11.372;2022-08-02T07:36:24;101360.72;;;17.37;70.96
61786;BME280;47692;53.714;11.372;2022-08-02T07:38:49;101356.78;;;17.48;69.83
61786;BME280;47692;53.714;11.372;2022-08-02T07:41:15;101350.06;;;17.61;71.07
61786;BME280;47692;53.714;11.372;2022-08-02T07:43:40;101346.84;;;17.75;70.56
61786;BME280;47692;53.714;11.372;2022-08-02T07:46:06;101351.84;;;17.81;69.52
61786;BME280;47692;53.714;11.372;2022-08-02T07:48:31;101335.66;;;17.89;69.12
61786;BME280;47692;53.714;11.372;2022-08-02T07:50:57;101346.50;;;17.83;68.74
61786;BME280;47692;53.714;11.372;2022-08-02T07:53:23;101335.56;;;17.92;68.76
61786;BME280;47692;53.714;11.372;2022-08-02T07:55:49;101334.69;;;17.91;69.08
61786;BME280;47692;53.714;11.372;2022-08-02T07:58:15;101333.97;;;17.88;68.68
61786;BME280;47692;53.714;11.372;2022-08-02T08:00:41;101322.19;;;18.16;69.25
61786;BME280;47692;53.714;11.372;2022-08-02T08:03:07;101320.25;;;18.40;67.52
61786;BME280;47692;53.714;11.372;2022-08-02T08:05:33;101308.94;;;18.55;65.86
61786;BME280;47692;53.714;11.372;2022-08-02T08:07:58;101302.41;;;18.82;66.61
61786;BME280;47692;53.714;11.372;2022-08-02T08:10:23;101309.53;;;18.80;65.12
61786;BME280;47692;53.714;11.372;2022-08-02T08:12:49;101315.38;;;18.69;65.35
61786;BME280;47692;53.714;11.372;2022-08-02T08:15:14;101326.22;;;18.44;66.00
61786;BME280;47692;53.714;11.372;2022-08-02T08:17:40;101314.50;;;18.49;66.18
61786;BME280;47692;53.714;11.372;2022-08-02T08:20:06;101312.50;;;18.73;67.06
61786;BME280;47692;53.714;11.372;2022-08-02T08:22:31;101315.34;;;18.50;64.59
61786;BME280;47692;53.714;11.372;2022-08-02T08:24:56;101310.91;;;18.31;65.21
61786;BME280;47692;53.714;11.372;2022-08-02T08:27:22;101315.16;;;18.35;65.73
61786;BME280;47692;53.714;11.372;2022-08-02T08:29:48;101317.06;;;18.51;65.17
61786;BME280;47692;53.714;11.372;2022-08-02T08:32:13;101315.22;;;18.53;63.99
61786;BME280;47692;53.714;11.372;2022-08-02T08:34:38;101328.69;;;18.67;62.94
61786;BME280;47692;53.714;11.372;2022-08-02T08:37:04;101328.22;;;18.77;62.31
61786;BME280;47692;53.714;11.372;2022-08-02T08:39:30;101322.72;;;18.81;62.37
61786;BME280;47692;53.714;11.372;2022-08-02T08:41:55;101324.44;;;18.82;62.29
61786;BME280;47692;53.714;11.372;2022-08-02T08:44:21;101313.78;;;18.84;62.93
61786;BME280;47692;53.714;11.372;2022-08-02T08:46:48;101321.72;;;18.84;62.63
61786;BME280;47692;53.714;11.372;2022-08-02T08:49:40;101321.63;;;19.04;61.49
61786;BME280;47692;53.714;11.372;2022-08-02T08:52:10;101337.06;;;19.14;61.48
61786;BME280;47692;53.714;11.372;2022-08-02T08:54:37;101332.88;;;19.10;61.22
61786;BME280;47692;53.714;11.372;2022-08-02T08:57:05;101328.34;;;19.12;59.28
61786;BME280;47692;53.714;11.372;2022-08-02T08:59:31;101326.63;;;19.11;59.92
61786;BME280;47692;53.714;11.372;2022-08-02T09:01:57;101320.22;;;18.97;61.02
61786;BME280;47692;53.714;11.372;2022-08-02T09:04:22;101310.19;;;19.04;59.79
61786;BME280;47692;53.714;11.372;2022-08-02T09:06:48;101300.25;;;19.27;61.24
61786;BME280;47692;53.714;11.372;2022-08-02T09:09:13;101294.09;;;19.44;61.16
61786;BME280;47692;53.714;11.372;2022-08-02T09:11:39;101279.16;;;19.43;60.47
61786;BME280;47692;53.714;11.372;2022-08-02T09:14:04;101276.41;;;19.79;61.57
61786;BME280;47692;53.714;11.372;2022-08-02T09:16:35;101280.00;;;20.12;57.96
61786;BME280;47692;53.714;11.372;2022-08-02T09:19:16;101286.72;;;20.01;57.03
61786;BME280;47692;53.714;11.372;2022-08-02T09:21:42;101279.88;;;19.97;55.92
61786;BME280;47692;53.714;11.372;2022-08-02T09:24:18;101286.84;;;20.16;53.07
61786;BME280;47692;53.714;11.372;2022-08-02T09:26:45;101276.88;;;20.53;53.40
61786;BME280;47692;53.714;11.372;2022-08-02T09:29:11;101279.28;;;20.74;52.10
61786;BME280;47692;53.714;11.372;2022-08-02T09:31:37;101281.16;;;20.72;52.46
61786;BME280;47692;53.714;11.372;2022-08-02T09:34:02;101283.72;;;20.73;51.52
61786;BME280;47692;53.714;11.372;2022-08-02T09:36:38;101279.59;;;20.67;50.43
61786;BME280;47692;53.714;11.372;2022-08-02T09:39:05;101270.22;;;20.78;52.40
61786;BME280;47692;53.714;11.372;2022-08-02T09:41:33;101258.88;;;20.90;51.32
61786;BME280;47692;53.714;11.372;2022-08-02T09:44:01;101262.66;;;20.86;51.07
61786;BME280;47692;53.714;11.372;2022-08-02T09:46:29;101262.13;;;20.63;50.19
61786;BME280;47692;53.714;11.372;2022-08-02T09:48:59;101254.94;;;20.97;51.66
61786;BME280;47692;53.714;11.372;2022-08-02T09:51:36;101251.41;;;21.27;49.98
61786;BME280;47692;53.714;11.372;2022-08-02T09:54:07;101248.13;;;21.08;46.63
61786;BME280;47692;53.714;11.372;2022-08-02T09:56:59;101251.59;;;21.24;46.25
61786;BME280;47692;53.714;11.372;2022-08-02T09:59:27;101255.00;;;21.26;48.25
61786;BME280;47692;53.714;11.372;2022-08-02T10:01:54;101253.03;;;21.44;48.73
61786;BME280;47692;53.714;11.372;2022-08-02T10:04:22;101248.56;;;21.61;47.36
61786;BME280;47692;53.714;11.372;2022-08-02T10:06:49;101253.91;;;21.45;44.71
61786;BME280;47692;53.714;11.372;2022-08-02T10:09:15;101247.09;;;21.55;44.38
61786;BME280;47692;53.714;11.372;2022-08-02T10:11:41;101241.63;;;21.73;43.88
61786;BME280;47692;53.714;11.372;2022-08-02T10:14:08;101239.16;;;21.84;44.18
61786;BME280;47692;53.714;11.372;2022-08-02T10:16:39;101235.00;;;21.94;42.79
61786;BME280;47692;53.714;11.372;2022-08-02T10:19:06;101237.66;;;21.80;41.71
61786;BME280;47692;53.714;11.372;2022-08-02T10:24:14;101241.22;;;22.22;41.34
61786;BME280;47692;53.714;11.372;2022-08-02T10:26:42;101248.41;;;22.35;41.48
61786;BME280;47692;53.714;11.372;2022-08-02T10:29:09;101240.44;;;22.49;40.86
61786;BME280;47692;53.714;11.372;2022-08-02T10:31:42;101242.97;;;22.51;41.10
61786;BME280;47692;53.714;11.372;2022-08-02T10:34:10;101246.22;;;22.69;41.91
61786;BME280;47692;53.714;11.372;2022-08-02T10:36:39;101235.50;;;22.43;40.59
61786;BME280;47692;53.714;11.372;2022-08-02T10:39:05;101232.19;;;22.67;41.54
61786;BME280;47692;53.714;11.372;2022-08-02T10:41:50;101231.38;;;22.79;40.90
61786;BME280;47692;53.714;11.372;2022-08-02T10:44:24;101224.75;;;22.72;42.36
61786;BME280;47692;53.714;11.372;2022-08-02T10:46:50;101226.66;;;22.70;43.82
61786;BME280;47692;53.714;11.372;2022-08-02T10:49:17;101231.56;;;22.76;43.77
61786;BME280;47692;53.714;11.372;2022-08-02T10:54:32;101224.19;;;22.94;43.95
61786;BME280;47692;53.714;11.372;2022-08-02T10:56:59;101228.34;;;22.98;42.65
61786;BME280;47692;53.714;11.372;2022-08-02T11:01:53;101233.09;;;23.20;44.24
61786;BME280;47692;53.714;11.372;2022-08-02T11:09:31;101212.06;;;24.06;45.86
61786;BME280;47692;53.714;11.372;2022-08-02T11:12:00;101212.72;;;23.97;43.35
61786;BME280;47692;53.714;11.372;2022-08-02T11:14:26;101215.94;;;23.76;44.12
61786;BME280;47692;53.714;11.372;2022-08-02T11:19:24;101214.44;;;23.20;44.37
61786;BME280;47692;53.714;11.372;2022-08-02T11:22:09;101218.09;;;23.05;44.56
61786;BME280;47692;53.714;11.372;2022-08-02T11:24:36;101204.38;;;23.11;44.76
61786;BME280;47692;53.714;11.372;2022-08-02T11:27:06;101202.09;;;23.45;44.00
61786;BME280;47692;53.714;11.372;2022-08-02T11:29:40;101203.59;;;23.49;44.69
61786;BME280;47692;53.714;11.372;2022-08-02T11:34:46;101211.44;;;23.90;44.20
61786;BME280;47692;53.714;11.372;2022-08-02T11:37:12;101203.66;;;23.86;42.82
61786;BME280;47692;53.714;11.372;2022-08-02T11:39:37;101199.31;;;23.72;43.22
61786;BME280;47692;53.714;11.372;2022-08-02T11:42:03;101194.75;;;23.75;44.02
61786;BME280;47692;53.714;11.372;2022-08-02T11:44:37;101190.66;;;23.95;43.91
61786;BME280;47692;53.714;11.372;2022-08-02T11:47:03;101189.84;;;24.18;44.33
61786;BME280;47692;53.714;11.372;2022-08-02T11:49:31;101192.97;;;24.36;43.74
61786;BME280;47692;53.714;11.372;2022-08-02T11:51:59;101201.44;;;24.55;40.67
61786;BME280;47692;53.714;11.372;2022-08-02T11:54:33;101208.47;;;24.56;42.26
61786;BME280;47692;53.714;11.372;2022-08-02T11:59:38;101193.94;;;24.60;43.50
61786;BME280;47692;53.714;11.372;2022-08-02T12:02:05;101179.53;;;24.38;43.25
61786;BME280;47692;53.714;11.372;2022-08-02T12:04:30;101181.22;;;24.39;44.37
61786;BME280;47692;53.714;11.372;2022-08-02T12:06:57;101180.13;;;24.17;44.17
61786;BME280;47692;53.714;11.372;2022-08-02T12:09:25;101168.03;;;24.49;43.64
61786;BME280;47692;53.714;11.372;2022-08-02T12:11:51;101169.19;;;24.93;44.06
61786;BME280;47692;53.714;11.372;2022-08-02T12:14:17;101173.09;;;24.89;42.36
61786;BME280;47692;53.714;11.372;2022-08-02T12:16:42;101172.72;;;24.94;42.93
61786;BME280;47692;53.714;11.372;2022-08-02T12:19:26;101155.69;;;24.83;43.58
61786;BME280;47692;53.714;11.372;2022-08-02T12:22:13;101155.31;;;24.52;43.47
61786;BME280;47692;53.714;11.372;2022-08-02T12:24:42;101157.53;;;24.59;44.20
61786;BME280;47692;53.714;11.372;2022-08-02T12:27:08;101152.19;;;24.83;43.07
61786;BME280;47692;53.714;11.372;2022-08-02T12:29:39;101159.16;;;25.20;43.76
61786;BME280;47692;53.714;11.372;2022-08-02T12:32:07;101164.75;;;25.05;44.78
61786;BME280;47692;53.714;11.372;2022-08-02T12:34:33;101157.44;;;25.07;45.31
61786;BME280;47692;53.714;11.372;2022-08-02T12:37:02;101142.38;;;25.06;43.63
61786;BME280;47692;53.714;11.372;2022-08-02T12:39:39;101147.47;;;24.87;43.51
61786;BME280;47692;53.714;11.372;2022-08-02T12:42:06;101147.00;;;24.93;43.75
61786;BME280;47692;53.714;11.372;2022-08-02T12:44:32;101147.22;;;24.90;43.28
61786;BME280;47692;53.714;11.372;2022-08-02T12:47:06;101134.81;;;24.89;44.06
61786;BME280;47692;53.714;11.372;2022-08-02T12:49:32;101137.28;;;25.03;44.06
61786;BME280;47692;53.714;11.372;2022-08-02T12:51:58;101142.16;;;24.98;43.52
61786;BME280;47692;53.714;11.372;2022-08-02T12:54:37;101134.91;;;25.23;43.72
61786;BME280;47692;53.714;11.372;2022-08-02T12:57:14;101135.63;;;25.70;44.51
61786;BME280;47692;53.714;11.372;2022-08-02T12:59:41;101139.03;;;25.84;43.88
61786;BME280;47692;53.714;11.372;2022-08-02T13:02:09;101127.34;;;25.73;43.12
61786;BME280;47692;53.714;11.372;2022-08-02T13:04:35;101125.94;;;26.13;44.33
61786;BME280;47692;53.714;11.372;2022-08-02T13:07:01;101125.38;;;26.42;43.18
61786;BME280;47692;53.714;11.372;2022-08-02T13:09:27;101122.13;;;26.27;43.68
61786;BME280;47692;53.714;11.372;2022-08-02T13:11:59;101120.75;;;26.11;43.52
61786;BME280;47692;53.714;11.372;2022-08-02T13:14:24;101122.16;;;26.16;43.75
61786;BME280;47692;53.714;11.372;2022-08-02T13:16:50;101119.00;;;26.22;44.22
61786;BME280;47692;53.714;11.372;2022-08-02T13:19:15;101115.28;;;26.34;43.91
61786;BME280;47692;53.714;11.372;2022-08-02T13:21:42;101112.25;;;25.95;43.86
61786;BME280;47692;53.714;11.372;2022-08-02T13:24:07;101111.09;;;25.42;44.39